Time;durP1;ratioP1;P1;durP2;ratioP2;P2;SDS_P1;SDS_P2;PMS_P1;PMS_P2;Temp;Humidity;BMP_temperature;BMP_pressure;BME280_temperature;BME280_humidity;BME280_pressure;Samples;Min_cycle;Max_cycle;Signal;HPM_P1;HPM_P2
2022/09/05 00:02:03;;;;;;;1.73;1.63;;;;;;;24.61;58.84;97951.63;5060751;28;20348;-32
2022/09/05 00:04:48;;;;;;;1.70;1.60;;;;;;;24.61;59.00;97954.19;5069413;28;20244;-33
2022/09/05 00:07:25;;;;;;;1.80;1.70;;;;;;;24.61;58.75;97953.31;5066830;28;20669;-32
2022/09/05 00:10:17;;;;;;;1.93;1.80;;;;;;;24.61;59.11;97943.91;5068087;28;20212;-32
2022/09/05 00:12:46;;;;;;;1.80;1.70;;;;;;;24.41;58.83;97908.25;5075343;28;20269;-32
2022/09/05 00:15:32;;;;;;;2.20;2.00;;;;;;;24.60;59.06;97942.16;5067888;28;20224;-32
2022/09/05 00:18:08;;;;;;;2.17;1.97;;;;;;;24.60;59.00;97936.16;5067427;28;20690;-32
2022/09/05 00:21:18;;;;;;;2.20;2.00;;;;;;;24.61;58.91;97937.88;5064630;28;20216;-32
2022/09/05 00:24:19;;;;;;;1.90;1.80;;;;;;;24.55;58.58;97927.47;5067003;28;20566;-32
2022/09/05 00:27:30;;;;;;;3.40;1.80;;;;;;;24.56;58.74;97927.50;5074108;28;20204;-32
2022/09/05 00:30:18;;;;;;;1.80;1.60;;;;;;;24.60;58.82;97934.44;5070690;28;20638;-32
2022/09/05 00:33:24;;;;;;;1.93;1.83;;;;;;;24.60;59.01;97931.88;5074529;28;20204;-33
2022/09/05 00:36:22;;;;;;;2.00;1.90;;;;;;;24.60;59.23;97939.56;5075188;28;20630;-32
2022/09/05 00:39:00;;;;;;;2.00;1.80;;;;;;;24.60;59.07;97939.56;5043158;28;20214;-32
2022/09/05 00:41:26;;;;;;;1.70;1.60;;;;;;;24.60;59.39;97942.16;5072024;28;20648;-32
2022/09/05 00:43:56;;;;;;;2.33;2.03;;;;;;;24.58;58.76;97932.66;5066046;28;20231;-32
2022/09/05 00:46:30;;;;;;;1.93;1.80;;;;;;;24.58;58.77;97932.66;5060404;28;20231;-32
2022/09/05 00:49:30;;;;;;;1.80;1.70;;;;;;;24.52;58.92;97930.84;5054768;28;20250;-32
2022/09/05 00:52:13;;;;;;;2.30;2.10;;;;;;;24.61;59.12;97945.59;5066591;28;20254;-32
2022/09/05 00:54:39;;;;;;;1.90;1.80;;;;;;;24.61;58.87;97946.47;5068552;28;20240;-32
2022/09/05 00:57:16;;;;;;;1.80;1.70;;;;;;;24.61;58.98;97948.16;5069472;28;20634;-32
2022/09/05 01:00:01;;;;;;;1.90;1.80;;;;;;;24.61;58.95;97950.72;5064743;28;20201;-32
2022/09/05 01:02:30;;;;;;;2.10;1.97;;;;;;;24.60;59.09;97949.84;5067034;28;20252;-32
2022/09/05 01:05:09;;;;;;;1.90;1.80;;;;;;;24.60;59.11;97955.00;5062203;28;20251;-32
2022/09/05 01:07:38;;;;;;;1.80;1.70;;;;;;;24.60;59.23;97978.13;5054191;28;20242;-32
2022/09/05 01:10:38;;;;;;;1.97;1.87;;;;;;;24.60;58.83;97964.44;5060164;28;20294;-32
2022/09/05 01:13:34;;;;;;;3.33;1.90;;;;;;;24.60;58.71;97960.13;5062842;28;20243;-32
2022/09/05 01:16:10;;;;;;;2.00;1.90;;;;;;;24.60;58.60;97952.44;5062819;28;20255;-32
2022/09/05 01:19:00;;;;;;;1.70;1.60;;;;;;;24.61;58.84;97963.59;5067968;28;20222;-32
2022/09/05 01:21:36;;;;;;;1.73;1.63;;;;;;;24.61;58.75;97963.59;5066891;28;20220;-32
2022/09/05 01:24:26;;;;;;;1.70;1.60;;;;;;;24.55;59.01;97950.59;5060476;28;20576;-32
2022/09/05 01:26:53;;;;;;;2.27;1.97;;;;;;;24.60;58.65;97960.13;5058167;28;20228;-32
2022/09/05 01:29:44;;;;;;;1.80;1.70;;;;;;;24.61;58.82;97971.28;5069739;28;20243;-32
2022/09/05 01:32:29;;;;;;;1.90;1.80;;;;;;;24.60;59.06;97967.84;5066418;28;20496;-32
2022/09/05 01:35:16;;;;;;;2.07;1.87;;;;;;;24.60;58.67;97967.00;5070089;28;20235;-32
2022/09/05 01:37:46;;;;;;;2.13;1.87;;;;;;;24.60;58.72;97964.44;5060853;28;20224;-32
2022/09/05 01:40:27;;;;;;;2.33;1.73;;;;;;;24.61;59.01;97966.16;5055710;28;20741;-32
2022/09/05 01:43:31;;;;;;;3.00;1.90;;;;;;;24.60;59.11;97964.44;5059401;28;20482;-32
2022/09/05 01:45:57;;;;;;;1.77;1.67;;;;;;;24.60;58.85;97960.13;5069643;28;20220;-32
2022/09/05 01:48:48;;;;;;;1.97;1.80;;;;;;;24.61;59.13;97963.59;5064974;28;20239;-32
2022/09/05 01:51:33;;;;;;;1.77;1.67;;;;;;;24.60;58.66;97964.44;5057280;28;20224;-32
2022/09/05 01:54:19;;;;;;;2.00;1.90;;;;;;;24.60;59.08;97957.56;5065610;28;20233;-32
2022/09/05 01:57:27;;;;;;;1.70;1.60;;;;;;;24.57;58.55;97962.63;5070562;28;20196;-32
2022/09/05 02:00:11;;;;;;;2.00;1.90;;;;;;;24.61;58.82;97961.00;5068352;28;20299;-32
2022/09/05 02:02:40;;;;;;;1.90;1.80;;;;;;;24.59;58.84;97968.69;5057094;28;20295;-32
2022/09/05 02:05:40;;;;;;;1.93;1.83;;;;;;;24.59;59.07;97967.81;5067338;28;20206;-32
2022/09/05 02:08:14;;;;;;;1.90;1.80;;;;;;;24.59;58.85;97970.38;5068723;28;20216;-32
2022/09/05 02:11:00;;;;;;;1.90;1.80;;;;;;;24.59;59.07;97973.81;5063985;28;20616;-32
2022/09/05 02:13:45;;;;;;;2.60;1.93;;;;;;;24.59;58.87;97971.25;5057349;28;20228;-32
2022/09/05 02:16:20;;;;;;;1.70;1.60;;;;;;;24.59;58.89;97968.69;5069605;28;20226;-32
2022/09/05 02:18:53;;;;;;;1.80;1.70;;;;;;;24.59;59.21;97966.13;5059916;28;20192;-32
2022/09/05 02:21:32;;;;;;;2.37;1.80;;;;;;;24.59;58.71;97960.97;5059731;28;20248;-32
2022/09/05 02:24:14;;;;;;;1.70;1.60;;;;;;;24.59;58.99;97963.56;5073669;28;20622;-32
2022/09/05 02:26:58;;;;;;;2.00;1.90;;;;;;;24.59;58.84;97971.25;5063398;28;20227;-32
2022/09/05 02:29:38;;;;;;;2.40;1.80;;;;;;;24.51;59.02;97941.94;5061127;28;20737;-32
2022/09/05 02:32:20;;;;;;;1.80;1.70;;;;;;;24.60;59.03;97954.16;5060226;28;20307;-32
2022/09/05 02:34:55;;;;;;;2.23;2.07;;;;;;;24.57;58.74;97954.06;5064181;28;20287;-32
2022/09/05 02:37:24;;;;;;;1.70;1.60;;;;;;;24.59;58.69;97966.13;5062374;28;20246;-32
2022/09/05 02:40:21;;;;;;;2.03;1.83;;;;;;;24.60;58.93;97967.84;5069485;28;20667;-32
2022/09/05 02:43:26;;;;;;;1.90;1.80;;;;;;;24.60;58.82;97964.44;5067123;28;20209;-32
2022/09/05 02:46:34;;;;;;;1.90;1.80;;;;;;;24.60;58.82;97967.00;5061378;28;20207;-32
2022/09/05 02:49:04;;;;;;;1.97;1.77;;;;;;;24.60;59.07;97969.56;5062362;28;20228;-32
2022/09/05 02:51:56;;;;;;;1.90;1.80;;;;;;;24.59;58.95;97966.13;5063466;28;20228;-32
2022/09/05 02:54:44;;;;;;;1.83;1.73;;;;;;;24.50;58.83;97950.47;5055159;28;20918;-32
2022/09/05 02:57:42;;;;;;;1.70;1.60;;;;;;;24.59;59.13;97958.41;5053771;28;20210;-32
2022/09/05 03:00:34;;;;;;;1.80;1.70;;;;;;;24.59;58.78;97952.38;5072164;28;20567;-32
2022/09/05 03:03:27;;;;;;;1.80;1.70;;;;;;;24.59;58.83;97955.84;5053508;28;20276;-32
2022/09/05 03:06:08;;;;;;;1.73;1.63;;;;;;;24.58;58.91;97961.81;5046605;28;20584;-32
2022/09/05 03:08:47;;;;;;;1.80;1.70;;;;;;;24.58;59.00;97968.66;5055693;28;20295;-32
2022/09/05 03:11:35;;;;;;;2.00;1.63;;;;;;;24.59;58.90;97972.94;5059738;28;20216;-32
2022/09/05 03:14:34;;;;;;;1.70;1.60;;;;;;;24.58;58.93;97974.69;5059572;28;20201;-32
2022/09/05 03:17:10;;;;;;;1.70;1.60;;;;;;;24.59;58.44;97973.81;5058968;28;20200;-32
2022/09/05 03:19:55;;;;;;;1.67;1.50;;;;;;;24.59;58.61;97972.94;5070447;28;20192;-32
2022/09/05 03:22:53;;;;;;;1.70;1.60;;;;;;;24.59;58.53;97972.94;5065971;28;20285;-32
2022/09/05 03:25:29;;;;;;;1.87;1.77;;;;;;;24.58;58.73;97972.09;5061826;28;20208;-32
2022/09/05 03:28:21;;;;;;;1.70;1.60;;;;;;;24.58;58.68;97966.97;5061480;28;20255;-32
2022/09/05 03:31:26;;;;;;;2.03;1.83;;;;;;;24.59;58.76;97968.69;5056503;28;21716;-32
2022/09/05 03:34:23;;;;;;;1.60;1.50;;;;;;;24.59;58.75;97973.81;5062271;28;20686;-32
2022/09/05 03:36:52;;;;;;;1.60;1.50;;;;;;;24.56;58.65;97972.88;5055536;28;20644;-32
2022/09/05 03:39:43;;;;;;;1.93;1.83;;;;;;;24.58;58.77;97974.69;5062934;28;20283;-32
2022/09/05 03:42:28;;;;;;;1.80;1.70;;;;;;;24.57;58.39;97980.63;5094092;22;20315;-22
2022/09/05 03:45:29;;;;;;;1.57;1.47;;;;;;;24.57;58.46;97980.63;5086634;28;20198;-22
2022/09/05 03:48:09;;;;;;;1.67;1.57;;;;;;;24.57;58.50;97970.34;5065160;28;20230;-22
2022/09/05 03:50:57;;;;;;;2.07;1.83;;;;;;;24.57;58.69;97996.03;5076529;28;20205;-22
2022/09/05 03:54:10;;;;;;;3.10;1.43;;;;;;;24.58;58.45;97976.38;5065798;28;20200;-22
2022/09/05 03:57:27;;;;;;;1.80;1.70;;;;;;;24.58;58.83;97971.22;5062626;28;20204;-22
2022/09/05 04:00:21;;;;;;;1.80;1.70;;;;;;;24.57;58.45;97972.91;5062662;28;20221;-23
2022/09/05 04:02:57;;;;;;;1.87;1.77;;;;;;;24.57;58.85;97972.06;5050485;28;20302;-22
2022/09/05 04:05:57;;;;;;;1.97;1.50;;;;;;;24.57;58.84;97972.91;5058194;28;20463;-23
2022/09/05 04:08:47;;;;;;;1.60;1.50;;;;;;;24.58;58.71;97966.09;5058665;28;20224;-22
2022/09/05 04:11:23;;;;;;;1.40;1.30;;;;;;;24.58;58.57;97963.50;5056480;28;20606;-22
2022/09/05 04:13:53;;;;;;;1.73;1.50;;;;;;;24.58;58.54;97971.22;5059182;28;20231;-23
2022/09/05 04:16:50;;;;;;;1.93;1.70;;;;;;;24.47;58.63;97945.25;5052590;28;20239;-22
2022/09/05 04:19:31;;;;;;;1.60;1.50;;;;;;;24.58;58.38;97969.53;5068468;28;20196;-22
2022/09/05 04:22:20;;;;;;;1.60;1.50;;;;;;;24.58;58.55;97968.66;5065321;28;20303;-22
2022/09/05 04:25:01;;;;;;;1.60;1.50;;;;;;;24.58;58.61;97960.94;5066575;28;20832;-22
2022/09/05 04:28:09;;;;;;;1.70;1.60;;;;;;;24.58;58.85;97959.25;5053803;28;20319;-26
2022/09/05 04:30:44;;;;;;;1.70;1.60;;;;;;;24.57;58.37;97957.50;5053952;28;20224;-23
2022/09/05 04:33:29;;;;;;;1.80;1.70;;;;;;;24.58;58.78;97960.94;5061160;28;20252;-22
2022/09/05 04:36:32;;;;;;;1.60;1.50;;;;;;;24.58;58.58;97966.09;5064710;28;20201;-22
2022/09/05 04:39:17;;;;;;;1.50;1.40;;;;;;;24.57;58.78;97972.91;5059327;28;20789;-22
2022/09/05 04:42:03;;;;;;;1.50;1.40;;;;;;;24.22;58.63;97913.78;5061795;28;20259;-23
2022/09/05 04:45:10;;;;;;;1.60;1.50;;;;;;;24.58;58.58;97976.38;5064609;28;20469;-23
2022/09/05 04:47:46;;;;;;;1.60;1.50;;;;;;;24.58;58.69;97984.94;5071748;28;20228;-22
2022/09/05 04:50:16;;;;;;;1.80;1.70;;;;;;;24.58;58.50;97984.06;5066699;28;20223;-22
2022/09/05 04:53:03;;;;;;;1.87;1.77;;;;;;;24.58;58.65;97984.94;5060053;28;20216;-22
2022/09/05 04:55:32;;;;;;;1.70;1.60;;;;;;;24.48;58.62;97967.53;5067535;28;20292;-22
2022/09/05 04:58:29;;;;;;;1.60;1.50;;;;;;;24.58;58.84;97992.66;5057761;28;20254;-22
2022/09/05 05:01:24;;;;;;;1.93;1.77;;;;;;;24.36;58.56;97956.09;5046774;28;20231;-22
2022/09/05 05:04:15;;;;;;;1.70;1.60;;;;;;;24.58;58.70;98000.38;5058035;28;20204;-22
2022/09/05 05:07:19;;;;;;;3.33;1.70;;;;;;;24.58;58.41;97995.22;5059923;28;20211;-23
2022/09/05 05:09:51;;;;;;;1.83;1.73;;;;;;;24.60;58.53;98000.41;5061546;28;20220;-22
2022/09/05 05:13:16;;;;;;;1.80;1.70;;;;;;;24.59;58.50;98008.94;5064885;28;20583;-22
2022/09/05 05:16:17;;;;;;;1.90;1.70;;;;;;;24.58;58.62;97997.81;5010401;28;20596;-22
2022/09/05 05:19:13;;;;;;;1.93;1.70;;;;;;;24.59;58.47;98007.25;5009944;28;20206;-23
2022/09/05 05:21:49;;;;;;;2.10;1.80;;;;;;;24.58;58.69;98013.22;5067087;28;20631;-22
2022/09/05 05:24:26;;;;;;;2.80;1.70;;;;;;;24.59;58.33;98009.81;5067980;28;20300;-22
2022/09/05 05:27:06;;;;;;;1.90;1.80;;;;;;;24.59;58.58;98014.06;5062552;28;20288;-22
2022/09/05 05:29:42;;;;;;;1.80;1.70;;;;;;;24.58;58.78;98025.19;5063165;28;20306;-22
2022/09/05 05:32:18;;;;;;;1.70;1.60;;;;;;;24.51;58.85;98015.59;5063937;28;20262;-22
2022/09/05 05:35:11;;;;;;;1.70;1.60;;;;;;;24.59;58.68;98035.50;5052359;28;20563;-22
2022/09/05 05:38:11;;;;;;;2.13;1.90;;;;;;;24.59;58.66;98032.06;5072389;28;20672;-22
2022/09/05 05:40:38;;;;;;;2.13;1.80;;;;;;;24.59;58.81;98032.94;5049107;28;20239;-22
2022/09/05 05:43:38;;;;;;;2.07;1.87;;;;;;;24.51;58.63;98015.59;5049961;28;20224;-23
2022/09/05 05:46:14;;;;;;;1.90;1.70;;;;;;;24.60;58.31;98026.13;5055400;28;20201;-22
2022/09/05 05:48:40;;;;;;;2.03;1.90;;;;;;;24.33;58.51;97981.69;5046094;28;20224;-22
2022/09/05 05:51:32;;;;;;;1.67;1.57;;;;;;;24.60;58.55;98020.97;5055843;28;20243;-22
2022/09/05 05:54:35;;;;;;;5.50;2.47;;;;;;;24.60;58.93;98023.53;5070149;28;20216;-22
2022/09/05 05:57:36;;;;;;;8.17;3.73;;;;;;;24.60;59.17;98029.53;5063013;28;20280;-22
2022/09/05 06:00:04;;;;;;;6.97;3.80;;;;;;;24.60;59.20;98036.38;5018655;28;20283;-22
2022/09/05 06:02:49;;;;;;;8.67;4.00;;;;;;;24.60;59.71;98029.53;5060802;28;20235;-22
2022/09/05 06:05:55;;;;;;;9.03;4.40;;;;;;;24.61;60.07;98030.41;5061818;28;20202;-22
2022/09/05 06:08:31;;;;;;;5.47;4.07;;;;;;;24.59;60.09;98030.38;5059230;28;20754;-22
2022/09/05 06:11:40;;;;;;;6.53;4.30;;;;;;;24.59;59.90;98025.22;5068483;28;20226;-22
2022/09/05 06:14:48;;;;;;;5.20;3.67;;;;;;;24.59;59.92;98025.22;5061256;28;20462;-22
2022/09/05 06:18:13;;;;;;;5.90;3.83;;;;;;;24.57;60.17;98032.03;5059167;28;20208;-22
2022/09/05 06:21:17;;;;;;;5.67;4.00;;;;;;;24.58;60.24;98033.78;5034315;28;20278;-23
2022/09/05 06:24:19;;;;;;;6.57;4.30;;;;;;;24.59;61.11;98034.63;5066545;28;20231;-22
2022/09/05 06:27:05;;;;;;;5.13;3.80;;;;;;;24.58;61.15;98038.94;5061314;28;20591;-22
2022/09/05 06:29:57;;;;;;;5.37;3.90;;;;;;;24.58;61.10;98038.94;5066300;28;20307;-22
2022/09/05 06:33:01;;;;;;;5.37;3.80;;;;;;;24.58;61.02;98036.34;5057169;28;20319;-22
2022/09/05 06:36:06;;;;;;;5.17;3.90;;;;;;;24.58;60.85;98038.03;5068388;28;20290;-22
2022/09/05 06:38:44;;;;;;;4.80;4.40;;;;;;;24.57;61.44;98044.03;5067674;28;20246;-22
2022/09/05 06:41:36;;;;;;;6.87;4.83;;;;;;;24.49;61.49;98033.56;5054021;28;20694;-22
2022/09/05 06:44:12;;;;;;;14.73;5.63;;;;;;;24.57;61.69;98042.31;5055185;28;20235;-22
2022/09/05 06:46:40;;;;;;;7.07;5.00;;;;;;;24.57;61.76;98052.59;5068890;28;20199;-22
2022/09/05 06:49:55;;;;;;;9.87;5.80;;;;;;;24.57;61.90;98050.00;5039727;28;20220;-22
2022/09/05 06:52:40;;;;;;;10.77;6.47;;;;;;;24.57;62.16;98047.44;5063533;28;20252;-22
2022/09/05 06:55:38;;;;;;;12.40;6.57;;;;;;;24.58;62.12;98046.63;5057580;28;20287;-22
2022/09/05 06:58:23;;;;;;;11.77;6.83;;;;;;;24.58;62.15;98043.19;5061528;28;20648;-22
2022/09/05 07:00:50;;;;;;;10.47;6.33;;;;;;;24.56;62.25;98045.72;5061315;28;20228;-22
2022/09/05 07:03:38;;;;;;;11.57;6.63;;;;;;;24.57;62.17;98051.75;5063913;28;20639;-22
2022/09/05 07:06:19;;;;;;;13.50;6.37;;;;;;;24.56;62.24;98048.28;5065854;28;20583;-22
2022/09/05 07:09:07;;;;;;;13.47;6.57;;;;;;;24.56;62.29;98049.97;5053856;28;20216;-22
2022/09/05 07:12:18;;;;;;;13.60;6.40;;;;;;;24.55;62.03;98050.81;5048665;28;20277;-22
2022/09/05 07:15:02;;;;;;;14.03;6.40;;;;;;;24.56;62.41;98053.44;5065840;28;20314;-22
2022/09/05 07:17:47;;;;;;;22.43;5.83;;;;;;;24.57;62.48;98051.75;5069431;28;20200;-22
2022/09/05 07:20:38;;;;;;;11.90;5.80;;;;;;;24.57;62.55;98056.88;5068025;28;20205;-22
2022/09/05 07:24:04;;;;;;;8.30;5.63;;;;;;;24.31;62.66;98014.22;5066784;28;20207;-22
2022/09/05 07:26:41;;;;;;;11.50;5.03;;;;;;;24.48;62.59;98042.06;5009584;28;20201;-22
2022/09/05 07:29:46;;;;;;;8.50;5.13;;;;;;;24.57;61.94;98056.88;5063520;28;20216;-22
2022/09/05 07:32:26;;;;;;;10.53;4.97;;;;;;;24.57;62.39;98070.56;5058705;28;20223;-22
2022/09/05 07:34:53;;;;;;;11.87;5.30;;;;;;;24.49;62.01;98056.69;5043245;28;20244;-22
2022/09/05 07:37:24;;;;;;;12.07;4.87;;;;;;;24.37;62.20;98028.06;5066818;28;20283;-22
2022/09/05 07:39:56;;;;;;;6.90;4.57;;;;;;;24.57;62.02;98059.44;5047756;28;20224;-22
2022/09/05 07:42:33;;;;;;;13.80;4.73;;;;;;;24.57;61.69;98057.72;5067987;28;20220;-22
2022/09/05 07:45:05;;;;;;;8.10;4.73;;;;;;;24.49;61.81;98041.25;5051463;28;20238;-22
2022/09/05 07:47:33;;;;;;;7.73;5.30;;;;;;;24.58;61.32;98054.34;5065700;28;20238;-22
2022/09/05 07:50:04;;;;;;;6.97;4.50;;;;;;;24.58;61.33;98063.75;5048896;28;20251;-22
2022/09/05 07:52:53;;;;;;;8.00;4.57;;;;;;;24.58;61.67;98062.06;5062990;28;20224;-22
2022/09/05 07:55:41;;;;;;;9.07;4.47;;;;;;;24.58;61.71;98061.19;5066602;28;20204;-22
2022/09/05 07:58:40;;;;;;;5.13;4.20;;;;;;;24.58;61.57;98059.47;5058489;28;20208;-22
2022/09/05 08:01:11;;;;;;;6.20;4.20;;;;;;;24.59;61.33;98062.91;5040982;28;20291;-22
2022/09/05 08:03:38;;;;;;;14.80;4.40;;;;;;;24.50;61.84;98050.69;5049882;28;20201;-22
2022/09/05 08:06:07;;;;;;;10.67;4.50;;;;;;;24.59;61.84;98068.91;5055126;28;20291;-22
2022/09/05 08:09:03;;;;;;;6.03;4.07;;;;;;;24.59;61.05;98066.34;5063445;28;20714;-22
2022/09/05 08:11:51;;;;;;;6.10;4.20;;;;;;;24.60;60.93;98070.66;5061740;28;20244;-22
2022/09/05 08:14:40;;;;;;;6.80;4.30;;;;;;;24.60;61.08;98068.09;5068397;28;20571;-22
2022/09/05 08:17:18;;;;;;;10.13;4.43;;;;;;;24.35;59.96;98021.16;5065597;28;20254;-22
2022/09/05 08:19:57;;;;;;;6.67;4.20;;;;;;;24.60;59.95;98062.94;5044465;28;20589;-23
2022/09/05 08:22:41;;;;;;;5.17;4.20;;;;;;;24.60;60.20;98062.94;5065895;28;20239;-22
2022/09/05 08:25:20;;;;;;;5.63;3.57;;;;;;;24.61;60.08;98061.25;5043642;28;20204;-22
2022/09/05 08:27:49;;;;;;;4.67;3.70;;;;;;;24.61;60.35;98062.13;5057779;28;20197;-22
2022/09/05 08:30:16;;;;;;;8.77;4.03;;;;;;;24.63;60.54;98059.59;5059447;28;20315;-22
2022/09/05 08:33:00;;;;;;;4.77;3.60;;;;;;;24.63;60.41;98051.88;5052887;28;20625;-22
2022/09/05 08:35:51;;;;;;;5.20;4.20;;;;;;;24.61;60.66;98054.41;5065054;28;20203;-22
2022/09/05 08:38:23;;;;;;;6.97;3.67;;;;;;;24.63;60.75;98051.88;5051283;28;20219;-22
2022/09/05 08:41:29;;;;;;;7.93;3.90;;;;;;;24.63;61.04;98049.31;5068610;28;20231;-22
2022/09/05 08:44:48;;;;;;;7.30;3.67;;;;;;;24.63;60.48;98051.88;4990505;28;20285;-23
2022/09/05 08:47:38;;;;;;;8.70;4.00;;;;;;;24.64;60.61;98045.91;5066463;28;20211;-22
2022/09/05 08:50:11;;;;;;;6.40;4.10;;;;;;;24.64;60.66;98049.34;5071342;28;20647;-22
2022/09/05 08:53:33;;;;;;;7.87;4.17;;;;;;;24.64;60.79;98044.22;5066503;28;20478;-21
2022/09/05 08:56:35;;;;;;;9.20;4.00;;;;;;;24.66;60.60;98046.88;5029358;28;20233;-22
2022/09/05 08:59:22;;;;;;;7.40;3.87;;;;;;;24.41;60.51;97996.50;5070262;28;20780;-22
2022/09/05 09:02:30;;;;;;;5.50;3.53;;;;;;;24.65;60.65;98033.13;5068143;28;20746;-22
2022/09/05 09:05:28;;;;;;;5.33;3.67;;;;;;;24.66;60.71;98029.72;5048831;28;20300;-23
2022/09/05 09:08:36;;;;;;;11.23;3.97;;;;;;;24.65;60.83;98034.81;5068450;28;20704;-22
2022/09/05 09:11:11;;;;;;;7.27;4.03;;;;;;;24.66;60.65;98031.44;5069043;28;20243;-24
2022/09/05 09:13:51;;;;;;;7.90;4.37;;;;;;;24.66;60.69;98026.28;5036086;28;20221;-22
2022/09/05 09:16:34;;;;;;;6.50;4.07;;;;;;;24.57;60.61;98006.31;5075093;28;20274;-21
2022/09/05 09:19:11;;;;;;;7.23;4.00;;;;;;;24.42;60.86;97980.25;5053379;28;20208;-22
2022/09/05 09:21:46;;;;;;;5.60;3.83;;;;;;;24.67;60.66;98018.63;5053302;28;20305;-22
2022/09/05 09:24:28;;;;;;;6.07;4.10;;;;;;;24.67;60.86;98026.34;5063433;28;20205;-23
2022/09/05 09:27:00;;;;;;;7.47;4.23;;;;;;;24.45;60.64;97985.47;5065560;28;20283;-22
2022/09/05 09:29:27;;;;;;;6.97;4.07;;;;;;;24.59;60.84;98003.78;5051825;28;20239;-22
2022/09/05 09:32:16;;;;;;;10.43;3.83;;;;;;;24.68;61.17;98022.91;5063444;28;20220;-22
2022/09/05 09:35:16;;;;;;;6.17;3.63;;;;;;;24.69;60.66;98021.22;5056875;28;20574;-22
2022/09/05 09:38:23;;;;;;;5.10;3.50;;;;;;;24.69;60.59;98022.09;5058311;28;20235;-22
2022/09/05 09:41:11;;;;;;;9.03;4.20;;;;;;;24.69;60.56;98018.66;5062761;28;20224;-22
2022/09/05 09:44:32;;;;;;;15.40;3.83;;;;;;;24.69;60.85;98018.66;5098357;22;20306;-32
2022/09/05 09:46:59;;;;;;;5.60;3.83;;;;;;;24.65;60.91;98012.56;5037207;28;20494;-32
2022/09/05 09:50:01;;;;;;;8.47;4.10;;;;;;;24.67;60.71;98016.06;5071569;28;20629;-32
2022/09/05 09:52:56;;;;;;;8.70;4.03;;;;;;;24.67;60.66;98018.63;5053039;28;20737;-32
2022/09/05 09:55:39;;;;;;;7.50;4.07;;;;;;;24.67;60.91;98013.47;5083908;28;20290;-32
2022/09/05 09:58:28;;;;;;;7.23;3.70;;;;;;;24.67;60.88;98005.78;5089165;28;20204;-32
2022/09/05 10:01:23;;;;;;;5.77;3.63;;;;;;;24.67;60.76;98008.34;5087770;28;20199;-32
2022/09/05 10:04:18;;;;;;;4.50;3.37;;;;;;;24.66;60.91;98006.59;5077278;28;20191;-33
2022/09/05 10:07:22;;;;;;;12.27;3.63;;;;;;;24.67;60.94;98002.31;5081830;28;20234;-32
2022/09/05 10:10:27;;;;;;;5.57;3.47;;;;;;;24.65;60.88;98007.44;5077137;28;20220;-32
2022/09/05 10:13:23;;;;;;;4.73;3.67;;;;;;;24.66;60.58;97998.03;5085918;28;20225;-32
2022/09/05 10:16:29;;;;;;;4.57;3.33;;;;;;;24.65;60.69;98004.84;5085350;28;20263;-32
2022/09/05 10:19:15;;;;;;;5.43;3.07;;;;;;;24.66;60.75;97995.44;5088056;28;20191;-32
2022/09/05 10:22:09;;;;;;;5.03;3.50;;;;;;;24.65;60.84;97994.56;5086790;28;20743;-32
2022/09/05 10:25:30;;;;;;;3.90;3.40;;;;;;;24.65;60.69;97986.84;5092093;28;20191;-32
2022/09/05 10:28:06;;;;;;;5.67;3.53;;;;;;;24.65;60.42;97988.56;5077917;28;20674;-32
2022/09/05 10:30:39;;;;;;;4.57;3.37;;;;;;;24.64;60.92;97984.22;5085390;28;20223;-32
2022/09/05 10:34:04;;;;;;;5.03;3.47;;;;;;;24.62;61.01;97978.16;5080352;28;20247;-32
2022/09/05 10:37:01;;;;;;;6.10;3.37;;;;;;;24.61;61.15;97976.44;5086756;28;20868;-33
2022/09/05 10:39:38;;;;;;;6.40;3.90;;;;;;;24.54;61.06;97964.28;5092581;28;20226;-32
2022/09/05 10:42:38;;;;;;;8.90;3.63;;;;;;;24.63;61.12;97973.06;5089296;28;20231;-32
2022/09/05 10:45:59;;;;;;;4.97;3.40;;;;;;;24.65;60.46;97970.56;5080552;28;20203;-32
2022/09/05 10:48:36;;;;;;;6.07;3.60;;;;;;;24.49;60.92;97940.16;5054026;28;20273;-32
2022/09/05 10:51:18;;;;;;;9.13;3.67;;;;;;;24.64;60.55;97968.81;5085115;28;20215;-32
2022/09/05 10:54:00;;;;;;;4.50;3.60;;;;;;;24.66;60.51;97962.88;5075143;28;20223;-32
2022/09/05 10:56:33;;;;;;;4.83;3.40;;;;;;;24.66;60.19;97959.47;5083491;28;20196;-32
2022/09/05 10:59:00;;;;;;;4.73;3.30;;;;;;;24.65;60.77;97961.16;5084803;28;20290;-32
2022/09/05 11:02:06;;;;;;;6.90;4.00;;;;;;;24.67;60.68;97967.22;5080298;28;20192;-32
2022/09/05 11:05:14;;;;;;;4.73;3.23;;;;;;;24.64;60.56;97950.81;5085951;28;20709;-32
2022/09/05 11:08:05;;;;;;;6.77;3.60;;;;;;;24.67;60.35;97956.06;5071227;28;20291;-32
2022/09/05 11:10:43;;;;;;;4.00;3.20;;;;;;;24.65;60.70;97956.03;5088001;28;20227;-32
2022/09/05 11:13:15;;;;;;;3.57;3.07;;;;;;;24.62;60.25;97944.75;5081144;28;20341;-32
2022/09/05 11:16:07;;;;;;;5.90;3.87;;;;;;;24.65;60.22;97948.31;5082962;28;20279;-32
2022/09/05 11:18:55;;;;;;;6.53;4.00;;;;;;;24.57;60.52;97936.09;5087054;28;20196;-32
2022/09/05 11:21:38;;;;;;;7.90;4.00;;;;;;;24.65;60.78;97950.88;5078650;28;20196;-32
2022/09/05 11:24:11;;;;;;;8.93;3.83;;;;;;;24.65;60.52;97939.72;5090327;28;20286;-32
2022/09/05 11:26:50;;;;;;;10.33;4.00;;;;;;;24.56;60.66;97932.63;5090827;28;20278;-32
2022/09/05 11:29:50;;;;;;;8.53;3.77;;;;;;;24.66;60.54;97944.03;5070606;28;20204;-32
2022/09/05 11:32:32;;;;;;;5.83;3.93;;;;;;;24.67;60.64;97940.63;5077400;28;20493;-32
2022/09/05 11:35:25;;;;;;;11.97;4.47;;;;;;;24.67;60.52;97938.06;5082604;28;20211;-32
2022/09/05 11:38:39;;;;;;;11.30;4.50;;;;;;;24.68;60.26;97932.06;5081296;28;20211;-32
2022/09/05 11:42:07;;;;;;;14.43;5.20;;;;;;;24.67;60.33;97941.50;5084403;28;20219;-32
2022/09/05 11:44:43;;;;;;;12.90;5.70;;;;;;;24.68;60.36;97927.81;5077786;28;20199;-32
2022/09/05 11:47:32;;;;;;;13.67;5.73;;;;;;;24.67;60.27;97926.09;5087212;28;21182;-32
2022/09/05 11:50:36;;;;;;;18.03;6.10;;;;;;;24.68;60.38;97921.78;5088439;28;20217;-32
2022/09/05 11:53:36;;;;;;;11.77;5.83;;;;;;;24.68;60.34;97922.69;5085927;28;20676;-32
2022/09/05 11:56:18;;;;;;;12.10;5.17;;;;;;;24.68;60.42;97925.25;5084618;28;20250;-32
2022/09/05 11:58:50;;;;;;;12.90;5.50;;;;;;;24.68;60.42;97922.69;5087585;28;20705;-32
2022/09/05 12:01:40;;;;;;;15.43;6.03;;;;;;;24.69;60.15;97920.97;5086549;28;20323;-32
2022/09/05 12:04:32;;;;;;;13.97;5.43;;;;;;;24.69;60.28;97920.97;5086508;28;20207;-32
2022/09/05 12:07:12;;;;;;;10.63;5.50;;;;;;;24.11;60.21;97818.50;5084284;28;20212;-32
2022/09/05 12:10:21;;;;;;;14.23;5.97;;;;;;;24.69;60.37;97920.97;5086045;28;20207;-32
2022/09/05 12:13:45;;;;;;;14.97;6.37;;;;;;;24.69;60.63;97918.41;5085359;28;20227;-32
2022/09/05 12:16:42;;;;;;;14.80;5.40;;;;;;;24.69;60.43;97903.00;5075982;28;20242;-32
2022/09/05 12:19:18;;;;;;;13.37;5.93;;;;;;;24.69;60.51;97900.41;5086886;28;20203;-32
2022/09/05 12:22:22;;;;;;;10.97;4.90;;;;;;;24.69;60.28;97901.28;5087947;28;20200;-32
2022/09/05 12:25:08;;;;;;;9.63;5.07;;;;;;;24.69;60.53;97893.56;5087956;28;20198;-32
2022/09/05 12:27:57;;;;;;;9.60;5.07;;;;;;;24.69;60.52;97893.56;5088696;28;20200;-32
2022/09/05 12:30:44;;;;;;;8.63;5.30;;;;;;;24.68;60.05;97899.53;5070546;28;20222;-32
2022/09/05 12:33:30;;;;;;;9.60;4.60;;;;;;;24.70;60.15;97902.16;5086096;28;20242;-32
2022/09/05 12:36:37;;;;;;;9.07;4.43;;;;;;;24.70;60.26;97891.88;5087127;28;20196;-32
2022/09/05 12:39:37;;;;;;;10.17;4.80;;;;;;;24.69;60.26;97900.41;5088264;28;20207;-32
2022/09/05 12:42:29;;;;;;;11.63;5.17;;;;;;;24.69;60.27;97892.72;5086562;28;20227;-32
2022/09/05 12:45:42;;;;;;;9.80;4.80;;;;;;;24.68;60.12;97886.69;5088270;28;20211;-33
2022/09/05 12:48:11;;;;;;;9.33;4.70;;;;;;;24.68;60.51;97888.38;5075264;28;20204;-32
2022/09/05 12:50:59;;;;;;;12.30;5.10;;;;;;;24.68;60.49;97878.97;5087272;28;20310;-32
2022/09/05 12:53:34;;;;;;;10.20;5.27;;;;;;;24.66;60.09;97874.66;5087043;28;20710;-32
2022/09/05 12:56:02;;;;;;;9.33;5.30;;;;;;;24.68;60.09;97886.69;5085765;28;20227;-32
2022/09/05 12:58:50;;;;;;;11.80;5.20;;;;;;;24.59;59.94;97865.88;5085772;28;20206;-33
2022/09/05 13:01:42;;;;;;;9.67;5.37;;;;;;;24.60;60.03;97864.19;5071950;28;20199;-32
2022/09/05 13:05:00;;;;;;;14.07;5.83;;;;;;;24.68;60.35;97878.97;5073253;28;20205;-32
2022/09/05 13:07:35;;;;;;;13.60;6.50;;;;;;;24.67;60.14;97871.22;5069170;28;20215;-32
2022/09/05 13:10:23;;;;;;;11.80;6.00;;;;;;;24.66;60.24;97867.78;5070438;28;20199;-32